sensor_id;sensor_type;location;lat;lon;timestamp;temperature;humidity
28244;DHT22;15510;52.512;13.300;2024-01-11T00:01:14;-4.30;99.90
28244;DHT22;15510;52.512;13.300;2024-01-11T00:03:40;-4.40;99.90
28244;DHT22;15510;52.512;13.300;2024-01-11T00:06:06;-4.50;99.90
28244;DHT22;15510;52.512;13.300;2024-01-11T00:08:32;-4.50;99.90
28244;DHT22;15510;52.512;13.300;2024-01-11T00:11:03;-4.50;99.90
28244;DHT22;15510;52.512;13.300;2024-01-11T00:13:30;-4.50;99.90
28244;DHT22;15510;52.512;13.300;2024-01-11T00:15:58;-4.60;99.90
28244;DHT22;15510;52.512;13.300;2024-01-11T00:18:24;-4.70;99.90
28244;DHT22;15510;52.512;13.300;2024-01-11T00:20:50;-4.70;99.90
28244;DHT22;15510;52.512;13.300;2024-01-11T00:23:19;-4.80;99.90
28244;DHT22;15510;52.512;13.300;2024-01-11T00:25:45;-4.80;99.90
28244;DHT22;15510;52.512;13.300;2024-01-11T00:28:14;-4.80;99.90
28244;DHT22;15510;52.512;13.300;2024-01-11T00:30:45;-4.70;99.90
28244;DHT22;15510;52.512;13.300;2024-01-11T00:33:11;-4.80;99.90
28244;DHT22;15510;52.512;13.300;2024-01-11T00:35:39;-4.70;99.90
28244;DHT22;15510;52.512;13.300;2024-01-11T00:38:05;-4.80;99.90
28244;DHT22;15510;52.512;13.300;2024-01-11T00:40:31;-4.80;99.90
28244;DHT22;15510;52.512;13.300;2024-01-11T00:42:57;-4.90;99.90
28244;DHT22;15510;52.512;13.300;2024-01-11T00:45:22;-4.90;99.90
28244;DHT22;15510;52.512;13.300;2024-01-11T00:47:48;-4.90;99.90
28244;DHT22;15510;52.512;13.300;2024-01-11T00:50:14;-4.90;99.90
28244;DHT22;15510;52.512;13.300;2024-01-11T00:52:39;-4.70;99.90
28244;DHT22;15510;52.512;13.300;2024-01-11T00:55:05;-4.70;99.90
28244;DHT22;15510;52.512;13.300;2024-01-11T00:57:34;-4.70;99.90
28244;DHT22;15510;52.512;13.300;2024-01-11T00:59:59;-4.80;99.90
28244;DHT22;15510;52.512;13.300;2024-01-11T01:02:25;-4.80;99.90
28244;DHT22;15510;52.512;13.300;2024-01-11T01:04:51;-4.70;99.90
28244;DHT22;15510;52.512;13.300;2024-01-11T01:07:19;-4.70;99.90
28244;DHT22;15510;52.512;13.300;2024-01-11T01:09:45;-4.70;99.90
28244;DHT22;15510;52.512;13.300;2024-01-11T01:12:11;-4.70;99.90
28244;DHT22;15510;52.512;13.300;2024-01-11T01:14:37;-4.60;99.90
28244;DHT22;15510;52.512;13.300;2024-01-11T01:17:03;-4.60;99.90
28244;DHT22;15510;52.512;13.300;2024-01-11T01:19:28;-4.60;99.90
28244;DHT22;15510;52.512;13.300;2024-01-11T01:21:54;-4.40;99.90
28244;DHT22;15510;52.512;13.300;2024-01-11T01:24:20;-4.30;99.90
28244;DHT22;15510;52.512;13.300;2024-01-11T01:26:48;-4.30;99.90
28244;DHT22;15510;52.512;13.300;2024-01-11T01:29:14;-4.30;99.90
28244;DHT22;15510;52.512;13.300;2024-01-11T01:31:40;-4.30;99.90
28244;DHT22;15510;52.512;13.300;2024-01-11T01:34:07;-4.10;99.90
28244;DHT22;15510;52.512;13.300;2024-01-11T01:36:32;-4.10;99.90
28244;DHT22;15510;52.512;13.300;2024-01-11T01:38:58;-4.10;99.90
28244;DHT22;15510;52.512;13.300;2024-01-11T01:41:24;-4.30;99.90
28244;DHT22;15510;52.512;13.300;2024-01-11T01:43:49;-4.30;99.90
28244;DHT22;15510;52.512;13.300;2024-01-11T01:46:20;-4.20;99.90
28244;DHT22;15510;52.512;13.300;2024-01-11T01:48:47;-4.10;99.90
28244;DHT22;15510;52.512;13.300;2024-01-11T01:51:13;-4.00;99.90
28244;DHT22;15510;52.512;13.300;2024-01-11T01:53:39;-4.10;99.90
28244;DHT22;15510;52.512;13.300;2024-01-11T01:56:07;-4.00;99.90
28244;DHT22;15510;52.512;13.300;2024-01-11T01:58:34;-4.00;99.90
28244;DHT22;15510;52.512;13.300;2024-01-11T02:01:00;-4.20;99.90
28244;DHT22;15510;52.512;13.300;2024-01-11T02:03:28;-4.30;99.90
28244;DHT22;15510;52.512;13.300;2024-01-11T02:05:54;-4.40;99.90
28244;DHT22;15510;52.512;13.300;2024-01-11T02:08:24;-4.60;99.90
28244;DHT22;15510;52.512;13.300;2024-01-11T02:10:51;-4.50;99.90
28244;DHT22;15510;52.512;13.300;2024-01-11T02:13:18;-4.60;99.90
28244;DHT22;15510;52.512;13.300;2024-01-11T02:15:45;-4.60;99.90
28244;DHT22;15510;52.512;13.300;2024-01-11T02:18:11;-4.70;99.90
28244;DHT22;15510;52.512;13.300;2024-01-11T02:20:37;-4.70;99.90
28244;DHT22;15510;52.512;13.300;2024-01-11T02:23:08;-4.70;99.90
28244;DHT22;15510;52.512;13.300;2024-01-11T02:25:35;-4.60;99.90
28244;DHT22;15510;52.512;13.300;2024-01-11T02:28:01;-4.60;99.90
28244;DHT22;15510;52.512;13.300;2024-01-11T02:30:27;-4.60;99.90
28244;DHT22;15510;52.512;13.300;2024-01-11T02:32:53;-4.60;99.90
28244;DHT22;15510;52.512;13.300;2024-01-11T02:35:19;-4.60;99.90
28244;DHT22;15510;52.512;13.300;2024-01-11T02:37:46;-4.60;99.90
28244;DHT22;15510;52.512;13.300;2024-01-11T02:40:13;-4.70;99.90
28244;DHT22;15510;52.512;13.300;2024-01-11T02:42:39;-4.70;99.90
28244;DHT22;15510;52.512;13.300;2024-01-11T02:45:05;-4.60;99.90
28244;DHT22;15510;52.512;13.300;2024-01-11T02:47:31;-4.60;99.90
28244;DHT22;15510;52.512;13.300;2024-01-11T02:49:59;-4.60;99.90
28244;DHT22;15510;52.512;13.300;2024-01-11T02:52:25;-4.60;99.90
28244;DHT22;15510;52.512;13.300;2024-01-11T02:54:51;-4.60;99.90
28244;DHT22;15510;52.512;13.300;2024-01-11T02:57:17;-4.50;99.90
28244;DHT22;15510;52.512;13.300;2024-01-11T02:59:43;-4.50;99.90
28244;DHT22;15510;52.512;13.300;2024-01-11T03:02:09;-4.50;99.90
28244;DHT22;15510;52.512;13.300;2024-01-11T03:04:38;-4.50;99.90
28244;DHT22;15510;52.512;13.300;2024-01-11T03:07:04;-4.60;99.90
28244;DHT22;15510;52.512;13.300;2024-01-11T03:09:29;-4.70;99.90
28244;DHT22;15510;52.512;13.300;2024-01-11T03:11:55;-4.70;99.90
28244;DHT22;15510;52.512;13.300;2024-01-11T03:14:21;-4.80;99.90
28244;DHT22;15510;52.512;13.300;2024-01-11T03:16:49;-4.70;99.90
28244;DHT22;15510;52.512;13.300;2024-01-11T03:19:15;-4.60;99.90
28244;DHT22;15510;52.512;13.300;2024-01-11T03:21:45;-4.60;99.90
28244;DHT22;15510;52.512;13.300;2024-01-11T03:24:12;-4.50;99.90
28244;DHT22;15510;52.512;13.300;2024-01-11T03:26:38;-4.50;99.90
28244;DHT22;15510;52.512;13.300;2024-01-11T03:29:05;-4.40;99.90
28244;DHT22;15510;52.512;13.300;2024-01-11T03:31:33;-4.20;99.90
28244;DHT22;15510;52.512;13.300;2024-01-11T03:33:59;-4.20;99.90
28244;DHT22;15510;52.512;13.300;2024-01-11T03:36:25;-4.20;99.90
28244;DHT22;15510;52.512;13.300;2024-01-11T03:38:50;-4.10;99.90
28244;DHT22;15510;52.512;13.300;2024-01-11T03:41:16;-4.00;99.90
28244;DHT22;15510;52.512;13.300;2024-01-11T03:43:42;-4.00;99.90
28244;DHT22;15510;52.512;13.300;2024-01-11T03:46:08;-3.90;99.90
28244;DHT22;15510;52.512;13.300;2024-01-11T03:48:40;-3.80;99.90
28244;DHT22;15510;52.512;13.300;2024-01-11T03:51:05;-3.80;99.90
28244;DHT22;15510;52.512;13.300;2024-01-11T03:53:35;-3.80;99.90
28244;DHT22;15510;52.512;13.300;2024-01-11T03:56:02;-3.90;99.90
28244;DHT22;15510;52.512;13.300;2024-01-11T03:58:28;-3.90;99.90
28244;DHT22;15510;52.512;13.300;2024-01-11T04:00:54;-3.80;99.90
28244;DHT22;15510;52.512;13.300;2024-01-11T04:03:19;-3.80;99.90
28244;DHT22;15510;52.512;13.300;2024-01-11T04:05:45;-3.70;99.90
28244;DHT22;15510;52.512;13.300;2024-01-11T04:08:11;-3.60;99.90
28244;DHT22;15510;52.512;13.300;2024-01-11T04:10:37;-3.60;99.90
28244;DHT22;15510;52.512;13.300;2024-01-11T04:13:03;-3.50;99.90
28244;DHT22;15510;52.512;13.300;2024-01-11T04:15:29;-3.50;99.90
28244;DHT22;15510;52.512;13.300;2024-01-11T04:17:54;-3.40;99.90
28244;DHT22;15510;52.512;13.300;2024-01-11T04:20:20;-3.40;99.90
28244;DHT22;15510;52.512;13.300;2024-01-11T04:22:46;-3.50;99.90
28244;DHT22;15510;52.512;13.300;2024-01-11T04:25:11;-3.60;99.90
28244;DHT22;15510;52.512;13.300;2024-01-11T04:27:37;-3.60;99.90
28244;DHT22;15510;52.512;13.300;2024-01-11T04:30:03;-3.60;99.90
28244;DHT22;15510;52.512;13.300;2024-01-11T04:32:29;-3.50;99.90
28244;DHT22;15510;52.512;13.300;2024-01-11T04:34:55;-3.40;99.90
28244;DHT22;15510;52.512;13.300;2024-01-11T04:37:21;-3.30;99.90
28244;DHT22;15510;52.512;13.300;2024-01-11T04:39:46;-3.30;99.90
28244;DHT22;15510;52.512;13.300;2024-01-11T04:42:14;-3.20;99.90
28244;DHT22;15510;52.512;13.300;2024-01-11T04:44:39;-3.10;99.90
28244;DHT22;15510;52.512;13.300;2024-01-11T04:47:05;-3.10;99.90
28244;DHT22;15510;52.512;13.300;2024-01-11T04:49:31;-3.10;99.90
28244;DHT22;15510;52.512;13.300;2024-01-11T04:51:57;-3.00;99.90
28244;DHT22;15510;52.512;13.300;2024-01-11T04:54:22;-2.90;99.90
28244;DHT22;15510;52.512;13.300;2024-01-11T04:56:48;-3.00;99.90
28244;DHT22;15510;52.512;13.300;2024-01-11T04:59:15;-2.90;99.90
28244;DHT22;15510;52.512;13.300;2024-01-11T05:01:41;-2.90;99.90
28244;DHT22;15510;52.512;13.300;2024-01-11T05:04:08;-2.90;99.90
28244;DHT22;15510;52.512;13.300;2024-01-11T05:06:34;-2.90;99.90
28244;DHT22;15510;52.512;13.300;2024-01-11T05:09:03;-2.80;99.90
28244;DHT22;15510;52.512;13.300;2024-01-11T05:11:30;-2.80;99.90
28244;DHT22;15510;52.512;13.300;2024-01-11T05:13:56;-2.90;99.90
28244;DHT22;15510;52.512;13.300;2024-01-11T05:16:25;-2.90;99.90
28244;DHT22;15510;52.512;13.300;2024-01-11T05:18:52;-2.90;99.90
28244;DHT22;15510;52.512;13.300;2024-01-11T05:21:18;-2.90;99.90
28244;DHT22;15510;52.512;13.300;2024-01-11T05:23:44;-2.90;99.90
28244;DHT22;15510;52.512;13.300;2024-01-11T05:26:10;-2.80;99.90
28244;DHT22;15510;52.512;13.300;2024-01-11T05:28:36;-2.90;99.90
28244;DHT22;15510;52.512;13.300;2024-01-11T05:31:05;-2.80;99.90
28244;DHT22;15510;52.512;13.300;2024-01-11T05:33:32;-2.70;99.90
28244;DHT22;15510;52.512;13.300;2024-01-11T05:35:58;-2.60;99.90
28244;DHT22;15510;52.512;13.300;2024-01-11T05:38:23;-2.60;99.90
28244;DHT22;15510;52.512;13.300;2024-01-11T05:40:52;-2.50;99.90
28244;DHT22;15510;52.512;13.300;2024-01-11T05:43:17;-2.50;99.90
28244;DHT22;15510;52.512;13.300;2024-01-11T05:45:43;-2.60;99.90
28244;DHT22;15510;52.512;13.300;2024-01-11T05:48:10;-2.40;99.90
28244;DHT22;15510;52.512;13.300;2024-01-11T05:50:36;-2.50;99.90
28244;DHT22;15510;52.512;13.300;2024-01-11T05:53:05;-2.50;99.90
28244;DHT22;15510;52.512;13.300;2024-01-11T05:55:31;-2.50;99.90
28244;DHT22;15510;52.512;13.300;2024-01-11T05:57:57;-2.50;99.90
28244;DHT22;15510;52.512;13.300;2024-01-11T06:00:23;-2.50;99.90
28244;DHT22;15510;52.512;13.300;2024-01-11T06:02:52;-2.50;99.90
28244;DHT22;15510;52.512;13.300;2024-01-11T06:05:17;-2.40;99.90
28244;DHT22;15510;52.512;13.300;2024-01-11T06:07:43;-2.40;99.90
28244;DHT22;15510;52.512;13.300;2024-01-11T06:10:09;-2.30;99.90
28244;DHT22;15510;52.512;13.300;2024-01-11T06:12:35;-2.30;99.90
28244;DHT22;15510;52.512;13.300;2024-01-11T06:15:02;-2.30;99.90
28244;DHT22;15510;52.512;13.300;2024-01-11T06:17:28;-2.10;99.90
28244;DHT22;15510;52.512;13.300;2024-01-11T06:19:54;-2.10;99.90
28244;DHT22;15510;52.512;13.300;2024-01-11T06:22:20;-2.10;99.90
28244;DHT22;15510;52.512;13.300;2024-01-11T06:24:46;-2.20;99.90
28244;DHT22;15510;52.512;13.300;2024-01-11T06:27:16;-2.20;99.90
28244;DHT22;15510;52.512;13.300;2024-01-11T06:29:42;-2.10;99.90
28244;DHT22;15510;52.512;13.300;2024-01-11T06:32:08;-2.10;99.90
28244;DHT22;15510;52.512;13.300;2024-01-11T06:34:36;-2.10;99.90
28244;DHT22;15510;52.512;13.300;2024-01-11T06:37:02;-2.10;99.90
28244;DHT22;15510;52.512;13.300;2024-01-11T06:39:29;-2.10;99.90
28244;DHT22;15510;52.512;13.300;2024-01-11T06:41:55;-2.00;99.90
28244;DHT22;15510;52.512;13.300;2024-01-11T06:44:21;-2.10;99.90
28244;DHT22;15510;52.512;13.300;2024-01-11T06:46:47;-2.00;99.90
28244;DHT22;15510;52.512;13.300;2024-01-11T06:49:13;-1.80;99.90
28244;DHT22;15510;52.512;13.300;2024-01-11T06:51:39;-1.80;99.90
28244;DHT22;15510;52.512;13.300;2024-01-11T06:54:07;-1.70;99.90
28244;DHT22;15510;52.512;13.300;2024-01-11T06:56:34;-1.60;99.90
28244;DHT22;15510;52.512;13.300;2024-01-11T06:59:01;-1.60;99.90
28244;DHT22;15510;52.512;13.300;2024-01-11T07:01:27;-1.70;99.90
28244;DHT22;15510;52.512;13.300;2024-01-11T07:03:53;-1.70;99.90
28244;DHT22;15510;52.512;13.300;2024-01-11T07:06:21;-1.60;99.90
28244;DHT22;15510;52.512;13.300;2024-01-11T07:08:47;-1.70;99.90
28244;DHT22;15510;52.512;13.300;2024-01-11T07:11:13;-1.80;99.90
28244;DHT22;15510;52.512;13.300;2024-01-11T07:13:39;-1.90;99.90
28244;DHT22;15510;52.512;13.300;2024-01-11T07:16:05;-1.90;99.90
28244;DHT22;15510;52.512;13.300;2024-01-11T07:18:31;-1.90;99.90
28244;DHT22;15510;52.512;13.300;2024-01-11T07:20:58;-1.80;99.90
28244;DHT22;15510;52.512;13.300;2024-01-11T07:23:24;-1.80;99.90
28244;DHT22;15510;52.512;13.300;2024-01-11T07:25:50;-1.80;99.90
28244;DHT22;15510;52.512;13.300;2024-01-11T07:28:16;-1.70;99.90
28244;DHT22;15510;52.512;13.300;2024-01-11T07:30:43;-1.70;99.90
28244;DHT22;15510;52.512;13.300;2024-01-11T07:33:08;-1.70;99.90
28244;DHT22;15510;52.512;13.300;2024-01-11T07:35:35;-1.80;99.90
28244;DHT22;15510;52.512;13.300;2024-01-11T07:38:00;-1.80;99.90
28244;DHT22;15510;52.512;13.300;2024-01-11T07:40:26;-1.70;99.90
28244;DHT22;15510;52.512;13.300;2024-01-11T07:42:52;-1.60;99.90
28244;DHT22;15510;52.512;13.300;2024-01-11T07:45:18;-1.60;99.90
28244;DHT22;15510;52.512;13.300;2024-01-11T07:47:49;-1.60;99.90
28244;DHT22;15510;52.512;13.300;2024-01-11T07:50:14;-1.60;99.90
28244;DHT22;15510;52.512;13.300;2024-01-11T07:52:40;-1.60;99.90
28244;DHT22;15510;52.512;13.300;2024-01-11T07:55:07;-1.50;99.90
28244;DHT22;15510;52.512;13.300;2024-01-11T07:57:37;-1.40;99.90
28244;DHT22;15510;52.512;13.300;2024-01-11T08:00:07;-1.30;99.90
28244;DHT22;15510;52.512;13.300;2024-01-11T08:02:41;-1.50;99.90
28244;DHT22;15510;52.512;13.300;2024-01-11T08:05:07;-1.50;99.90
28244;DHT22;15510;52.512;13.300;2024-01-11T08:07:35;-1.60;99.90
28244;DHT22;15510;52.512;13.300;2024-01-11T08:10:01;-1.50;99.90
28244;DHT22;15510;52.512;13.300;2024-01-11T08:12:27;-1.40;99.90
28244;DHT22;15510;52.512;13.300;2024-01-11T08:14:53;-1.40;99.90
28244;DHT22;15510;52.512;13.300;2024-01-11T08:17:21;-1.40;99.90
28244;DHT22;15510;52.512;13.300;2024-01-11T08:19:47;-1.50;99.90
28244;DHT22;15510;52.512;13.300;2024-01-11T08:22:15;-1.50;99.90
28244;DHT22;15510;52.512;13.300;2024-01-11T08:24:41;-1.50;99.90
28244;DHT22;15510;52.512;13.300;2024-01-11T08:27:07;-1.40;99.90
28244;DHT22;15510;52.512;13.300;2024-01-11T08:29:35;-1.40;99.90
28244;DHT22;15510;52.512;13.300;2024-01-11T08:32:02;-1.30;99.90
28244;DHT22;15510;52.512;13.300;2024-01-11T08:34:35;-1.20;99.90
28244;DHT22;15510;52.512;13.300;2024-01-11T08:37:07;-1.20;99.90
28244;DHT22;15510;52.512;13.300;2024-01-11T08:39:33;-1.30;99.90
28244;DHT22;15510;52.512;13.300;2024-01-11T08:41:59;-1.30;99.90
28244;DHT22;15510;52.512;13.300;2024-01-11T08:44:25;-1.40;99.90
28244;DHT22;15510;52.512;13.300;2024-01-11T08:46:56;-1.40;99.90
28244;DHT22;15510;52.512;13.300;2024-01-11T08:49:23;-1.40;99.90
28244;DHT22;15510;52.512;13.300;2024-01-11T08:51:49;-1.30;99.90
28244;DHT22;15510;52.512;13.300;2024-01-11T08:54:14;-1.30;99.90
28244;DHT22;15510;52.512;13.300;2024-01-11T08:56:42;-1.30;99.90
28244;DHT22;15510;52.512;13.300;2024-01-11T08:59:11;-1.30;99.90
28244;DHT22;15510;52.512;13.300;2024-01-11T09:01:37;-1.10;99.90
28244;DHT22;15510;52.512;13.300;2024-01-11T09:04:06;-1.10;99.90
28244;DHT22;15510;52.512;13.300;2024-01-11T09:06:32;-1.10;99.90
28244;DHT22;15510;52.512;13.300;2024-01-11T09:08:59;-1.20;99.90
28244;DHT22;15510;52.512;13.300;2024-01-11T09:11:24;-1.20;99.90
28244;DHT22;15510;52.512;13.300;2024-01-11T09:13:57;-1.20;99.90
28244;DHT22;15510;52.512;13.300;2024-01-11T09:16:26;-1.20;99.90
28244;DHT22;15510;52.512;13.300;2024-01-11T09:18:52;-1.20;99.90
28244;DHT22;15510;52.512;13.300;2024-01-11T09:21:18;-1.10;99.90
28244;DHT22;15510;52.512;13.300;2024-01-11T09:23:46;-1.10;99.90
28244;DHT22;15510;52.512;13.300;2024-01-11T09:26:12;-1.10;99.90
28244;DHT22;15510;52.512;13.300;2024-01-11T09:28:38;-1.10;99.90
28244;DHT22;15510;52.512;13.300;2024-01-11T09:31:04;-1.00;99.90
28244;DHT22;15510;52.512;13.300;2024-01-11T09:33:30;-0.90;99.90
28244;DHT22;15510;52.512;13.300;2024-01-11T09:35:56;-0.80;99.90
28244;DHT22;15510;52.512;13.300;2024-01-11T09:38:22;-0.70;99.90
28244;DHT22;15510;52.512;13.300;2024-01-11T09:41:08;-0.80;99.90
28244;DHT22;15510;52.512;13.300;2024-01-11T09:43:38;-0.90;99.90
28244;DHT22;15510;52.512;13.300;2024-01-11T09:46:06;-0.80;99.90
28244;DHT22;15510;52.512;13.300;2024-01-11T09:48:37;-0.80;99.90
28244;DHT22;15510;52.512;13.300;2024-01-11T09:51:04;-0.90;99.90
28244;DHT22;15510;52.512;13.300;2024-01-11T09:53:33;-0.80;99.90
28244;DHT22;15510;52.512;13.300;2024-01-11T09:56:00;-0.80;99.90
28244;DHT22;15510;52.512;13.300;2024-01-11T09:58:26;-0.70;99.90
28244;DHT22;15510;52.512;13.300;2024-01-11T10:00:56;-0.70;99.90
28244;DHT22;15510;52.512;13.300;2024-01-11T10:03:25;-0.80;99.90
28244;DHT22;15510;52.512;13.300;2024-01-11T10:05:57;-0.80;99.90
28244;DHT22;15510;52.512;13.300;2024-01-11T10:08:23;-0.90;99.90
28244;DHT22;15510;52.512;13.300;2024-01-11T10:10:49;-0.90;99.90
28244;DHT22;15510;52.512;13.300;2024-01-11T10:13:15;-1.00;99.90
28244;DHT22;15510;52.512;13.300;2024-01-11T10:15:44;-1.10;99.90
28244;DHT22;15510;52.512;13.300;2024-01-11T10:18:10;-1.10;99.90
28244;DHT22;15510;52.512;13.300;2024-01-11T10:20:36;-1.10;99.90
28244;DHT22;15510;52.512;13.300;2024-01-11T10:23:03;-1.10;99.90
28244;DHT22;15510;52.512;13.300;2024-01-11T10:25:29;-1.10;99.90
28244;DHT22;15510;52.512;13.300;2024-01-11T10:27:58;-1.00;99.90
28244;DHT22;15510;52.512;13.300;2024-01-11T10:30:24;-1.00;99.90
28244;DHT22;15510;52.512;13.300;2024-01-11T10:32:51;-1.10;99.90
28244;DHT22;15510;52.512;13.300;2024-01-11T10:35:19;-1.10;99.90
28244;DHT22;15510;52.512;13.300;2024-01-11T10:37:47;-1.10;99.90
28244;DHT22;15510;52.512;13.300;2024-01-11T10:40:17;-1.10;99.90
28244;DHT22;15510;52.512;13.300;2024-01-11T10:42:44;-1.10;99.90
28244;DHT22;15510;52.512;13.300;2024-01-11T10:45:20;-1.00;99.90
28244;DHT22;15510;52.512;13.300;2024-01-11T10:47:54;-0.90;99.90
28244;DHT22;15510;52.512;13.300;2024-01-11T10:50:23;-0.70;99.90
28244;DHT22;15510;52.512;13.300;2024-01-11T10:53:12;-0.60;99.90
28244;DHT22;15510;52.512;13.300;2024-01-11T10:55:38;-0.60;99.90
28244;DHT22;15510;52.512;13.300;2024-01-11T10:58:06;-0.70;99.90
28244;DHT22;15510;52.512;13.300;2024-01-11T11:00:34;-0.80;99.90
28244;DHT22;15510;52.512;13.300;2024-01-11T11:03:00;-0.70;99.90
28244;DHT22;15510;52.512;13.300;2024-01-11T11:05:28;-0.70;99.90
28244;DHT22;15510;52.512;13.300;2024-01-11T11:08:00;-0.60;99.90
28244;DHT22;15510;52.512;13.300;2024-01-11T11:10:27;-0.50;99.90
28244;DHT22;15510;52.512;13.300;2024-01-11T11:12:54;-0.40;99.90
28244;DHT22;15510;52.512;13.300;2024-01-11T11:15:23;-0.50;99.90
28244;DHT22;15510;52.512;13.300;2024-01-11T11:17:49;-0.60;99.90
28244;DHT22;15510;52.512;13.300;2024-01-11T11:20:15;-0.50;99.90
28244;DHT22;15510;52.512;13.300;2024-01-11T11:22:42;-0.50;99.90
28244;DHT22;15510;52.512;13.300;2024-01-11T11:25:23;-0.30;99.90
28244;DHT22;15510;52.512;13.300;2024-01-11T11:27:53;-0.40;99.90
28244;DHT22;15510;52.512;13.300;2024-01-11T11:30:19;-0.30;99.90
28244;DHT22;15510;52.512;13.300;2024-01-11T11:32:46;-0.20;99.90
28244;DHT22;15510;52.512;13.300;2024-01-11T11:35:12;-0.30;99.90
28244;DHT22;15510;52.512;13.300;2024-01-11T11:37:38;-0.40;99.90
28244;DHT22;15510;52.512;13.300;2024-01-11T11:40:09;-0.40;99.90
28244;DHT22;15510;52.512;13.300;2024-01-11T11:42:37;-0.40;99.90
28244;DHT22;15510;52.512;13.300;2024-01-11T11:45:03;-0.50;99.90
28244;DHT22;15510;52.512;13.300;2024-01-11T11:47:36;-0.40;99.90
28244;DHT22;15510;52.512;13.300;2024-01-11T11:50:09;-0.40;99.90
28244;DHT22;15510;52.512;13.300;2024-01-11T11:52:37;-0.30;99.90
28244;DHT22;15510;52.512;13.300;2024-01-11T11:55:04;-0.20;99.90
28244;DHT22;15510;52.512;13.300;2024-01-11T11:57:37;-0.20;99.90
28244;DHT22;15510;52.512;13.300;2024-01-11T12:00:03;-0.20;99.90
28244;DHT22;15510;52.512;13.300;2024-01-11T12:02:41;-0.10;99.90
28244;DHT22;15510;52.512;13.300;2024-01-11T12:05:07;0.00;99.90
28244;DHT22;15510;52.512;13.300;2024-01-11T12:07:41;0.00;99.90
28244;DHT22;15510;52.512;13.300;2024-01-11T12:10:07;0.00;99.90
28244;DHT22;15510;52.512;13.300;2024-01-11T12:12:38;0.00;99.90
28244;DHT22;15510;52.512;13.300;2024-01-11T12:15:05;0.10;99.90
28244;DHT22;15510;52.512;13.300;2024-01-11T12:17:31;0.10;99.90
28244;DHT22;15510;52.512;13.300;2024-01-11T12:20:02;0.30;99.90
28244;DHT22;15510;52.512;13.300;2024-01-11T12:22:31;0.20;99.90
28244;DHT22;15510;52.512;13.300;2024-01-11T12:24:57;0.20;99.90
28244;DHT22;15510;52.512;13.300;2024-01-11T12:27:23;0.30;99.90
28244;DHT22;15510;52.512;13.300;2024-01-11T12:29:49;0.30;99.90
28244;DHT22;15510;52.512;13.300;2024-01-11T12:32:14;0.40;99.90
28244;DHT22;15510;52.512;13.300;2024-01-11T12:34:43;0.40;99.90
28244;DHT22;15510;52.512;13.300;2024-01-11T12:37:12;0.40;99.90
28244;DHT22;15510;52.512;13.300;2024-01-11T12:39:39;0.40;99.90
28244;DHT22;15510;52.512;13.300;2024-01-11T12:42:07;0.40;99.90
28244;DHT22;15510;52.512;13.300;2024-01-11T12:44:35;0.40;99.90
28244;DHT22;15510;52.512;13.300;2024-01-11T12:47:03;0.30;99.90
28244;DHT22;15510;52.512;13.300;2024-01-11T12:49:31;0.40;99.90
28244;DHT22;15510;52.512;13.300;2024-01-11T12:51:56;0.40;99.90
28244;DHT22;15510;52.512;13.300;2024-01-11T12:54:25;0.50;99.90
28244;DHT22;15510;52.512;13.300;2024-01-11T12:56:51;0.50;99.90
28244;DHT22;15510;52.512;13.300;2024-01-11T12:59:17;0.50;99.90
28244;DHT22;15510;52.512;13.300;2024-01-11T13:01:45;0.60;99.90
28244;DHT22;15510;52.512;13.300;2024-01-11T13:04:12;0.60;99.90
28244;DHT22;15510;52.512;13.300;2024-01-11T13:06:38;0.70;99.90
28244;DHT22;15510;52.512;13.300;2024-01-11T13:09:07;0.70;99.90
28244;DHT22;15510;52.512;13.300;2024-01-11T13:11:33;0.80;99.90
28244;DHT22;15510;52.512;13.300;2024-01-11T13:14:00;0.80;99.90
28244;DHT22;15510;52.512;13.300;2024-01-11T13:16:33;0.90;99.90
28244;DHT22;15510;52.512;13.300;2024-01-11T13:18:59;0.80;99.90
28244;DHT22;15510;52.512;13.300;2024-01-11T13:21:24;0.70;99.90
28244;DHT22;15510;52.512;13.300;2024-01-11T13:23:50;0.70;99.90
28244;DHT22;15510;52.512;13.300;2024-01-11T13:26:16;0.70;99.90
28244;DHT22;15510;52.512;13.300;2024-01-11T13:28:44;0.70;99.90
28244;DHT22;15510;52.512;13.300;2024-01-11T13:31:09;0.70;99.90
28244;DHT22;15510;52.512;13.300;2024-01-11T13:33:36;0.60;99.90
28244;DHT22;15510;52.512;13.300;2024-01-11T13:36:02;0.70;99.90
28244;DHT22;15510;52.512;13.300;2024-01-11T13:38:28;0.70;99.90
28244;DHT22;15510;52.512;13.300;2024-01-11T13:40:53;0.70;99.90
28244;DHT22;15510;52.512;13.300;2024-01-11T13:43:19;0.70;99.90
28244;DHT22;15510;52.512;13.300;2024-01-11T13:45:45;0.70;99.90
28244;DHT22;15510;52.512;13.300;2024-01-11T13:48:11;0.70;99.90
28244;DHT22;15510;52.512;13.300;2024-01-11T13:50:37;0.80;99.90
28244;DHT22;15510;52.512;13.300;2024-01-11T13:53:03;0.90;99.90
28244;DHT22;15510;52.512;13.300;2024-01-11T13:55:28;0.90;99.90
28244;DHT22;15510;52.512;13.300;2024-01-11T13:58:03;0.80;99.90
28244;DHT22;15510;52.512;13.300;2024-01-11T14:00:29;0.90;99.90
28244;DHT22;15510;52.512;13.300;2024-01-11T14:02:54;0.80;99.90
28244;DHT22;15510;52.512;13.300;2024-01-11T14:05:20;0.80;99.90
28244;DHT22;15510;52.512;13.300;2024-01-11T14:07:46;0.70;99.90
28244;DHT22;15510;52.512;13.300;2024-01-11T14:10:13;0.70;99.90
28244;DHT22;15510;52.512;13.300;2024-01-11T14:12:40;0.70;99.90
28244;DHT22;15510;52.512;13.300;2024-01-11T14:15:08;0.70;99.90
28244;DHT22;15510;52.512;13.300;2024-01-11T14:17:37;0.70;99.90
28244;DHT22;15510;52.512;13.300;2024-01-11T14:20:04;0.80;99.90
28244;DHT22;15510;52.512;13.300;2024-01-11T14:22:32;0.80;99.90
28244;DHT22;15510;52.512;13.300;2024-01-11T14:24:57;0.70;99.90
28244;DHT22;15510;52.512;13.300;2024-01-11T14:27:23;0.80;99.90
28244;DHT22;15510;52.512;13.300;2024-01-11T14:29:49;0.80;99.90
28244;DHT22;15510;52.512;13.300;2024-01-11T14:32:15;0.80;99.90
28244;DHT22;15510;52.512;13.300;2024-01-11T14:34:44;0.80;99.90
28244;DHT22;15510;52.512;13.300;2024-01-11T14:37:13;0.80;99.90
28244;DHT22;15510;52.512;13.300;2024-01-11T14:39:40;0.80;99.90
28244;DHT22;15510;52.512;13.300;2024-01-11T14:42:06;0.80;99.90
28244;DHT22;15510;52.512;13.300;2024-01-11T14:44:35;0.90;99.90
28244;DHT22;15510;52.512;13.300;2024-01-11T14:47:01;0.80;99.90
28244;DHT22;15510;52.512;13.300;2024-01-11T14:49:27;0.80;99.90
28244;DHT22;15510;52.512;13.300;2024-01-11T14:51:55;0.80;99.90
28244;DHT22;15510;52.512;13.300;2024-01-11T14:54:20;0.80;99.90
28244;DHT22;15510;52.512;13.300;2024-01-11T14:56:47;0.70;99.90
28244;DHT22;15510;52.512;13.300;2024-01-11T14:59:16;0.70;99.90
28244;DHT22;15510;52.512;13.300;2024-01-11T15:01:41;0.70;99.90
28244;DHT22;15510;52.512;13.300;2024-01-11T15:04:07;0.80;99.90
28244;DHT22;15510;52.512;13.300;2024-01-11T15:06:33;0.80;99.90
28244;DHT22;15510;52.512;13.300;2024-01-11T15:08:59;0.80;99.90
28244;DHT22;15510;52.512;13.300;2024-01-11T15:11:24;0.80;99.90
28244;DHT22;15510;52.512;13.300;2024-01-11T15:13:51;0.80;99.90
28244;DHT22;15510;52.512;13.300;2024-01-11T15:16:16;0.80;99.90
28244;DHT22;15510;52.512;13.300;2024-01-11T15:18:42;0.80;99.90